createdAt,value
2023-02-17T00:01:01.106Z,21.80
2023-02-17T00:03:28.343Z,21.25
2023-02-17T00:05:55.526Z,22.05
2023-02-17T00:08:22.664Z,22.48
2023-02-17T00:10:57.501Z,21.17
2023-02-17T00:13:24.666Z,21.45
2023-02-17T00:15:51.921Z,21.10
2023-02-17T00:18:20.517Z,22.55
2023-02-17T00:20:47.752Z,20.13
2023-02-17T00:23:14.926Z,19.75
2023-02-17T00:25:42.142Z,19.52
2023-02-17T00:28:09.389Z,20.67
2023-02-17T00:30:37.624Z,19.60
2023-02-17T00:33:05.139Z,24.08
2023-02-17T00:35:33.702Z,21.63
2023-02-17T00:38:00.996Z,22.50
2023-02-17T00:40:28.153Z,22.42
2023-02-17T00:42:55.726Z,22.42
2023-02-17T00:45:22.913Z,22.02
2023-02-17T00:47:50.079Z,22.95
2023-02-17T00:50:17.591Z,21.65
2023-02-17T00:52:46.178Z,23.17
2023-02-17T00:55:13.337Z,22.98
2023-02-17T00:57:40.503Z,23.77
2023-02-17T01:00:08.978Z,24.40
2023-02-17T01:02:36.155Z,21.77
2023-02-17T01:05:03.678Z,24.90
2023-02-17T01:07:30.888Z,22.92
2023-02-17T01:09:59.398Z,24.40
2023-02-17T01:12:28.193Z,24.95
2023-02-17T01:14:55.350Z,23.80
2023-02-17T01:17:24.071Z,24.98
2023-02-17T01:19:51.218Z,25.35
2023-02-17T01:22:18.412Z,23.67
2023-02-17T01:24:45.613Z,23.70
2023-02-17T01:27:14.329Z,23.35
2023-02-17T01:29:41.609Z,24.02
2023-02-17T01:32:08.775Z,24.15
2023-02-17T01:34:36.866Z,23.40
2023-02-17T01:37:04.385Z,23.58
2023-02-17T01:39:32.004Z,24.38
2023-02-17T01:41:59.199Z,24.23
2023-02-17T01:44:31.579Z,22.63
2023-02-17T01:46:58.802Z,23.88
2023-02-17T01:49:31.273Z,24.50
2023-02-17T01:52:05.579Z,26.10
2023-02-17T01:54:37.674Z,25.45
2023-02-17T01:57:10.983Z,26.00
2023-02-17T01:59:40.827Z,23.77
2023-02-17T02:02:08.600Z,25.90
2023-02-17T02:04:39.013Z,24.50
2023-02-17T02:07:12.755Z,23.23
2023-02-17T02:09:45.976Z,23.10
2023-02-17T02:12:18.251Z,25.60
2023-02-17T02:14:48.834Z,24.83
2023-02-17T02:17:27.198Z,22.30
2023-02-17T02:20:18.663Z,23.67
2023-02-17T02:23:09.725Z,19.60
2023-02-17T02:26:00.076Z,22.42
2023-02-17T02:28:44.620Z,21.83
2023-02-17T02:31:28.304Z,20.63
2023-02-17T02:33:59.531Z,20.65
2023-02-17T02:36:30.979Z,20.15
2023-02-17T02:39:02.691Z,22.10
2023-02-17T02:41:33.969Z,20.13
2023-02-17T02:44:03.417Z,18.58
2023-02-17T02:46:30.603Z,20.02
2023-02-17T02:49:00.233Z,18.70
2023-02-17T02:51:43.542Z,20.52
2023-02-17T02:54:30.902Z,19.45
2023-02-17T02:57:19.357Z,19.77
2023-02-17T02:59:54.574Z,17.65
2023-02-17T03:02:29.281Z,18.15
2023-02-17T03:05:05.095Z,21.95
2023-02-17T03:07:36.278Z,20.50
2023-02-17T03:10:04.002Z,18.38
2023-02-17T03:12:31.717Z,18.55
2023-02-17T03:15:03.476Z,18.95
2023-02-17T03:20:00.251Z,18.85
2023-02-17T03:22:31.924Z,18.05
2023-02-17T03:24:59.120Z,18.30
2023-02-17T03:27:26.860Z,17.48
2023-02-17T03:29:54.415Z,17.25
2023-02-17T03:32:21.958Z,17.88
2023-02-17T03:34:49.372Z,18.02
2023-02-17T03:37:17.923Z,19.60
2023-02-17T03:39:45.142Z,17.55
2023-02-17T03:42:12.281Z,18.23
2023-02-17T03:44:39.466Z,17.63
2023-02-17T03:47:07.291Z,19.08
2023-02-17T03:49:34.664Z,17.45
2023-02-17T03:52:01.889Z,17.85
2023-02-17T03:54:30.470Z,17.55
2023-02-17T03:56:57.803Z,16.50
2023-02-17T03:59:25.102Z,15.93
2023-02-17T04:01:52.262Z,17.40
2023-02-17T04:04:19.681Z,18.23
2023-02-17T04:06:46.978Z,18.02
2023-02-17T04:09:14.321Z,17.33
2023-02-17T04:11:42.915Z,15.65
2023-02-17T04:14:10.085Z,16.55
2023-02-17T04:16:37.430Z,16.80
2023-02-17T04:19:05.266Z,18.23
2023-02-17T04:21:32.555Z,16.70
2023-02-17T04:24:00.708Z,16.70
2023-02-17T04:26:28.314Z,17.45
2023-02-17T04:28:56.900Z,16.88
2023-02-17T04:31:24.408Z,15.80
2023-02-17T04:33:51.801Z,16.52
2023-02-17T04:36:19.066Z,16.30
2023-02-17T04:38:46.224Z,15.25
2023-02-17T04:41:13.336Z,15.98
2023-02-17T04:43:40.504Z,16.50
2023-02-17T04:46:09.465Z,15.55
2023-02-17T04:48:36.902Z,15.15
2023-02-17T04:51:04.908Z,14.63
2023-02-17T04:53:32.091Z,14.20
2023-02-17T04:55:59.233Z,15.32
2023-02-17T04:58:26.430Z,15.35
2023-02-17T05:00:53.592Z,13.75
2023-02-17T05:03:22.156Z,14.85
2023-02-17T05:05:50.000Z,14.35
2023-02-17T05:08:17.209Z,15.13
2023-02-17T05:10:44.374Z,15.27
2023-02-17T05:13:11.618Z,14.05
2023-02-17T05:15:38.885Z,14.23
2023-02-17T05:18:06.143Z,14.32
2023-02-17T05:20:34.669Z,14.85
2023-02-17T05:23:01.861Z,13.43
2023-02-17T05:25:29.534Z,13.38
2023-02-17T05:27:56.830Z,12.98
2023-02-17T05:30:24.164Z,12.45
2023-02-17T05:32:51.338Z,11.73
2023-02-17T05:35:18.740Z,12.68
2023-02-17T05:37:47.286Z,12.88
2023-02-17T05:40:14.491Z,12.95
2023-02-17T05:42:41.668Z,12.98
2023-02-17T05:45:09.023Z,12.98
2023-02-17T05:47:36.254Z,13.48
2023-02-17T05:50:03.817Z,13.10
2023-02-17T05:52:31.544Z,12.50
2023-02-17T05:55:00.072Z,12.02
2023-02-17T05:57:27.226Z,12.75
2023-02-17T05:59:54.430Z,13.55
2023-02-17T06:02:21.644Z,13.73
2023-02-17T06:04:48.938Z,12.73
2023-02-17T06:07:16.125Z,14.85
2023-02-17T06:09:43.290Z,14.13
2023-02-17T06:12:11.844Z,13.82
2023-02-17T06:14:39.013Z,13.02
2023-02-17T06:17:06.152Z,13.10
2023-02-17T06:19:33.286Z,12.88
2023-02-17T06:22:00.560Z,13.50
2023-02-17T06:24:27.769Z,13.57
2023-02-17T06:26:54.905Z,12.70
2023-02-17T06:29:23.533Z,12.02
2023-02-17T06:31:50.812Z,13.20
2023-02-17T06:34:18.092Z,12.00
2023-02-17T06:36:45.314Z,14.13
2023-02-17T06:39:12.496Z,13.18
2023-02-17T06:41:39.670Z,13.02
2023-02-17T06:44:06.823Z,12.30
2023-02-17T06:46:35.351Z,12.73
2023-02-17T06:49:02.748Z,10.65
2023-02-17T06:51:30.169Z,11.43
2023-02-17T06:53:57.335Z,11.70
2023-02-17T06:56:24.489Z,12.07
2023-02-17T06:58:51.864Z,11.02
2023-02-17T07:01:21.846Z,11.93
2023-02-17T07:03:50.399Z,12.35
2023-02-17T07:06:18.047Z,11.20
2023-02-17T07:08:45.615Z,12.38
2023-02-17T07:11:14.348Z,11.55
2023-02-17T07:13:42.540Z,11.05
2023-02-17T07:16:12.630Z,10.07
2023-02-17T07:18:40.275Z,9.75
2023-02-17T07:21:09.348Z,8.73
2023-02-17T07:23:37.034Z,10.20
2023-02-17T07:26:06.177Z,8.75
2023-02-17T07:28:33.540Z,8.50
2023-02-17T07:31:05.323Z,7.50
2023-02-17T07:35:59.480Z,7.55
2023-02-17T07:38:28.018Z,7.55
2023-02-17T07:40:55.921Z,8.05
2023-02-17T07:43:23.544Z,7.22
2023-02-17T07:45:54.166Z,7.40
2023-02-17T07:48:21.379Z,7.47
2023-02-17T07:50:48.532Z,7.20
2023-02-17T07:53:15.687Z,6.90
2023-02-17T07:55:44.220Z,7.32
2023-02-17T07:58:11.409Z,6.88
2023-02-17T08:00:38.670Z,7.82
2023-02-17T08:03:05.820Z,7.03
2023-02-17T08:05:32.992Z,7.20
2023-02-17T08:08:00.159Z,6.28
2023-02-17T08:10:27.367Z,7.50
2023-02-17T08:12:55.923Z,6.32
2023-02-17T08:15:23.196Z,6.80
2023-02-17T08:17:51.607Z,6.32
2023-02-17T08:20:19.121Z,6.65
2023-02-17T08:22:46.292Z,6.50
2023-02-17T08:25:13.435Z,5.85
2023-02-17T08:27:40.669Z,6.18
2023-02-17T08:30:10.844Z,5.68
2023-02-17T08:32:38.158Z,5.45
2023-02-17T08:35:06.161Z,5.57
2023-02-17T08:37:33.601Z,5.72
2023-02-17T08:40:00.946Z,5.97
2023-02-17T08:42:28.642Z,5.78
2023-02-17T08:44:55.890Z,5.80
2023-02-17T08:47:24.419Z,5.70
2023-02-17T08:49:51.566Z,5.28
2023-02-17T08:52:18.818Z,6.07
2023-02-17T08:54:45.977Z,5.75
2023-02-17T08:57:13.132Z,5.38
2023-02-17T08:59:40.318Z,5.90
2023-02-17T09:02:07.467Z,5.45
2023-02-17T09:04:36.020Z,6.10
2023-02-17T09:07:03.196Z,5.05
2023-02-17T09:09:30.372Z,5.45
2023-02-17T09:11:57.961Z,5.18
2023-02-17T09:14:25.515Z,4.55
2023-02-17T09:16:54.248Z,4.97
2023-02-17T09:19:22.060Z,5.25
2023-02-17T09:21:50.635Z,5.22
2023-02-17T09:24:18.459Z,5.20
2023-02-17T09:26:45.658Z,4.82
2023-02-17T09:29:12.810Z,4.85
2023-02-17T09:31:40.320Z,4.90
2023-02-17T09:34:07.615Z,4.85
2023-02-17T09:36:39.575Z,5.07
2023-02-17T09:39:08.654Z,5.38
2023-02-17T09:41:39.311Z,5.28
2023-02-17T09:44:16.214Z,5.38
2023-02-17T09:47:00.800Z,5.50
2023-02-17T09:49:34.985Z,5.22
2023-02-17T09:52:08.846Z,5.47
2023-02-17T09:54:43.972Z,5.47
2023-02-17T09:57:14.925Z,4.70
2023-02-17T09:59:47.080Z,5.10
2023-02-17T10:02:24.375Z,5.30
2023-02-17T10:04:54.080Z,5.35
2023-02-17T10:07:28.012Z,5.30
2023-02-17T10:10:04.478Z,4.68
2023-02-17T10:12:36.233Z,4.85
2023-02-17T10:17:35.049Z,6.03
2023-02-17T10:20:06.731Z,5.72
2023-02-17T10:25:15.119Z,5.95
2023-02-17T10:27:45.694Z,5.38
2023-02-17T10:30:30.727Z,6.28
2023-02-17T10:33:10.382Z,5.75
2023-02-17T10:35:50.031Z,5.85
2023-02-17T10:38:19.044Z,5.65
2023-02-17T10:40:51.072Z,6.15
2023-02-17T10:43:24.408Z,5.95
2023-02-17T10:45:51.628Z,6.43
2023-02-17T10:48:21.983Z,6.47
2023-02-17T10:50:49.738Z,6.55
2023-02-17T10:53:19.496Z,7.05
2023-02-17T10:55:56.958Z,6.15
2023-02-17T10:58:28.791Z,6.13
2023-02-17T11:00:56.684Z,5.95
2023-02-17T11:03:26.821Z,6.55
2023-02-17T11:05:56.510Z,6.88
2023-02-17T11:08:29.896Z,7.07
2023-02-17T11:11:04.261Z,5.78
2023-02-17T11:13:35.288Z,5.65
2023-02-17T11:16:03.321Z,6.47
2023-02-17T11:18:33.950Z,6.72
2023-02-17T11:21:03.912Z,6.50
2023-02-17T11:23:31.300Z,6.47
2023-02-17T11:26:07.789Z,5.43
2023-02-17T11:28:35.348Z,5.90
2023-02-17T11:31:02.913Z,6.25
2023-02-17T11:33:34.156Z,5.35
2023-02-17T11:36:02.160Z,6.05
2023-02-17T11:38:34.536Z,5.30
2023-02-17T11:41:05.074Z,5.45
2023-02-17T11:43:32.465Z,5.63
2023-02-17T11:46:10.997Z,5.88
2023-02-17T11:49:00.576Z,5.10
2023-02-17T11:51:36.712Z,5.00
2023-02-17T11:54:13.077Z,5.32
2023-02-17T11:56:46.913Z,5.75
2023-02-17T11:59:32.284Z,5.22
2023-02-17T12:02:15.626Z,5.30
2023-02-17T12:04:52.804Z,5.20
2023-02-17T12:07:46.444Z,6.03
2023-02-17T12:10:22.333Z,5.88
2023-02-17T12:13:05.127Z,5.65
2023-02-17T12:15:48.851Z,5.65
2023-02-17T12:18:33.498Z,5.15
2023-02-17T12:21:09.022Z,5.50
2023-02-17T12:23:59.555Z,4.57
2023-02-17T12:26:36.169Z,4.38
2023-02-17T12:29:25.677Z,4.32
2023-02-17T12:32:04.596Z,4.68
2023-02-17T12:34:34.827Z,6.00
2023-02-17T12:37:04.110Z,4.55
2023-02-17T12:39:35.016Z,4.30
2023-02-17T12:42:07.055Z,4.50
2023-02-17T12:44:42.597Z,3.92
2023-02-17T12:47:13.919Z,4.10
2023-02-17T12:49:45.957Z,3.88
2023-02-17T12:52:18.196Z,4.00
2023-02-17T12:54:49.861Z,3.95
2023-02-17T12:57:22.279Z,4.15
2023-02-17T12:59:52.512Z,3.72
2023-02-17T13:02:22.484Z,4.10
2023-02-17T13:04:52.581Z,3.25
2023-02-17T13:07:39.532Z,3.78
2023-02-17T13:10:19.592Z,4.10
2023-02-17T13:12:57.087Z,3.38
2023-02-17T13:15:31.120Z,3.20
2023-02-17T13:18:00.286Z,3.70
2023-02-17T13:20:40.031Z,3.60
2023-02-17T13:23:10.607Z,3.80
2023-02-17T13:25:38.062Z,3.35
2023-02-17T13:28:31.818Z,3.47
2023-02-17T13:31:12.614Z,2.97
2023-02-17T13:33:43.100Z,3.00
2023-02-17T13:36:34.946Z,2.92
2023-02-17T13:42:57.408Z,3.25
2023-02-17T13:45:28.222Z,4.10
2023-02-17T13:47:58.408Z,3.13
2023-02-17T13:50:28.567Z,2.90
2023-02-17T13:52:56.326Z,3.78
2023-02-17T13:55:24.290Z,3.60
2023-02-17T13:57:52.952Z,3.15
2023-02-17T14:00:22.666Z,3.70
2023-02-17T14:02:51.319Z,3.70
2023-02-17T14:05:23.173Z,3.70
2023-02-17T14:07:58.698Z,3.78
2023-02-17T14:10:27.048Z,4.53
2023-02-17T14:12:55.399Z,3.20
2023-02-17T14:15:25.905Z,3.42
2023-02-17T14:17:53.607Z,3.10
2023-02-17T14:20:27.849Z,4.15
2023-02-17T14:23:06.983Z,4.22
2023-02-17T14:25:37.390Z,3.45
2023-02-17T14:28:17.056Z,3.50
2023-02-17T14:30:44.389Z,3.60
2023-02-17T14:33:21.123Z,3.13
2023-02-17T14:35:55.557Z,2.90
2023-02-17T14:38:25.642Z,3.20
2023-02-17T14:40:52.805Z,2.60
2023-02-17T14:43:19.970Z,2.80
2023-02-17T14:45:47.585Z,2.95
2023-02-17T14:48:14.781Z,2.70
2023-02-17T14:50:42.652Z,2.72
2023-02-17T14:53:23.553Z,2.50
2023-02-17T14:55:56.028Z,2.35
2023-02-17T14:58:25.868Z,2.28
2023-02-17T15:00:53.057Z,2.33
2023-02-17T15:03:20.233Z,2.60
2023-02-17T15:05:47.592Z,2.83
2023-02-17T15:08:18.474Z,2.38
2023-02-17T15:10:46.084Z,2.07
2023-02-17T15:13:15.545Z,2.42
2023-02-17T15:15:42.742Z,2.60
2023-02-17T15:18:10.014Z,2.47
2023-02-17T15:20:37.385Z,2.40
2023-02-17T15:23:10.431Z,3.05
2023-02-17T15:25:38.967Z,2.70
2023-02-17T15:28:06.487Z,2.95
2023-02-17T15:30:35.244Z,2.47
2023-02-17T15:33:03.111Z,2.42
2023-02-17T15:35:30.303Z,2.40
2023-02-17T15:37:57.506Z,2.67
2023-02-17T15:40:26.735Z,2.75
2023-02-17T15:42:57.474Z,2.45
2023-02-17T15:45:24.963Z,2.90
2023-02-17T15:48:03.648Z,2.78
2023-02-17T15:50:31.597Z,2.63
2023-02-17T15:52:58.986Z,2.80
2023-02-17T15:55:26.547Z,2.72
2023-02-17T15:57:59.122Z,2.78
2023-02-17T16:00:28.608Z,3.05
2023-02-17T16:02:55.801Z,2.92
2023-02-17T16:05:24.407Z,2.97
2023-02-17T16:07:51.715Z,3.53
2023-02-17T16:10:20.849Z,2.90
2023-02-17T16:12:50.277Z,3.38
2023-02-17T16:15:20.728Z,4.32
2023-02-17T16:17:49.115Z,2.92
2023-02-17T16:20:18.554Z,2.63
2023-02-17T16:22:46.127Z,2.47
2023-02-17T16:25:14.892Z,2.30
2023-02-17T16:27:43.032Z,2.35
2023-02-17T16:30:17.018Z,2.28
2023-02-17T16:32:46.329Z,2.40
2023-02-17T16:35:15.371Z,2.70
2023-02-17T16:37:49.178Z,2.60
2023-02-17T16:40:19.433Z,2.30
2023-02-17T16:42:46.689Z,2.72
2023-02-17T16:45:15.801Z,2.35
2023-02-17T16:47:48.541Z,2.70
2023-02-17T16:50:24.641Z,2.58
2023-02-17T16:52:53.482Z,3.15
2023-02-17T16:55:22.347Z,3.60
2023-02-17T16:57:50.213Z,2.60
2023-02-17T17:00:21.078Z,2.75
2023-02-17T17:02:50.250Z,3.70
2023-02-17T17:05:19.039Z,2.97
2023-02-17T17:07:46.865Z,3.17
2023-02-17T17:10:17.267Z,3.28
2023-02-17T17:12:45.858Z,3.35
2023-02-17T17:15:13.560Z,2.97
2023-02-17T17:17:43.830Z,3.15
2023-02-17T17:20:17.528Z,3.17
2023-02-17T17:22:45.137Z,2.97
2023-02-17T17:25:12.825Z,3.83
2023-02-17T17:27:40.209Z,3.80
2023-02-17T17:30:14.897Z,3.38
2023-02-17T17:32:42.136Z,3.30
2023-02-17T17:35:09.280Z,3.10
2023-02-17T17:37:39.487Z,3.17
2023-02-17T17:40:14.284Z,3.72
2023-02-17T17:42:41.516Z,5.00
2023-02-17T17:45:08.791Z,3.40
2023-02-17T17:47:35.976Z,3.20
2023-02-17T17:50:03.503Z,4.38
2023-02-17T17:52:30.681Z,5.05
2023-02-17T17:54:59.326Z,2.70
2023-02-17T17:57:26.507Z,4.03
2023-02-17T17:59:53.739Z,2.78
2023-02-17T18:02:20.886Z,2.70
2023-02-17T18:04:48.163Z,3.25
2023-02-17T18:07:15.546Z,3.17
2023-02-17T18:09:42.942Z,2.33
2023-02-17T18:12:14.156Z,2.30
2023-02-17T18:14:43.101Z,2.53
2023-02-17T18:17:13.394Z,1.73
2023-02-17T18:19:41.073Z,1.98
2023-02-17T18:22:08.300Z,1.88
2023-02-17T18:24:35.501Z,2.33
2023-02-17T18:27:02.861Z,2.28
2023-02-17T18:29:31.379Z,2.20
2023-02-17T18:31:58.600Z,2.10
2023-02-17T18:34:26.193Z,2.20
2023-02-17T18:36:53.609Z,2.30
2023-02-17T18:39:20.780Z,2.30
2023-02-17T18:41:47.932Z,2.40
2023-02-17T18:44:15.139Z,2.72
2023-02-17T18:46:43.770Z,2.45
2023-02-17T18:49:10.953Z,2.85
2023-02-17T18:51:38.284Z,2.50
2023-02-17T18:54:05.584Z,2.75
2023-02-17T18:56:33.120Z,2.45
2023-02-17T18:59:00.682Z,2.25
2023-02-17T19:01:31.673Z,2.63
2023-02-17T19:04:00.659Z,2.90
2023-02-17T19:06:31.374Z,2.22
2023-02-17T19:09:00.269Z,2.00
2023-02-17T19:11:27.452Z,2.45
2023-02-17T19:13:54.668Z,1.90
2023-02-17T19:16:24.201Z,2.78
2023-02-17T19:18:52.110Z,2.55
2023-02-17T19:21:21.275Z,2.80
2023-02-17T19:23:49.193Z,2.78
2023-02-17T19:26:17.600Z,3.08
2023-02-17T19:28:45.294Z,3.78
2023-02-17T19:31:14.175Z,3.10
2023-02-17T19:33:41.619Z,3.67
2023-02-17T19:36:10.939Z,3.83
2023-02-17T19:38:39.711Z,3.90
2023-02-17T19:41:09.314Z,3.92
2023-02-17T19:43:36.761Z,7.07
2023-02-17T19:46:04.502Z,5.70
2023-02-17T19:48:31.820Z,4.95
2023-02-17T19:51:00.678Z,4.45
2023-02-17T19:53:28.476Z,4.28
2023-02-17T19:56:07.184Z,5.00
2023-02-17T19:58:35.205Z,5.35
2023-02-17T20:01:06.485Z,4.68
2023-02-17T20:03:34.150Z,5.07
2023-02-17T20:06:06.726Z,5.07
2023-02-17T20:08:34.705Z,5.82
2023-02-17T20:11:07.773Z,5.97
2023-02-17T20:13:45.269Z,5.70
2023-02-17T20:16:15.743Z,5.38
2023-02-17T20:18:44.530Z,5.50
2023-02-17T20:21:13.969Z,6.65
2023-02-17T20:23:41.287Z,7.35
2023-02-17T20:26:13.008Z,6.25
2023-02-17T20:31:07.977Z,6.10
2023-02-17T20:33:35.547Z,5.20
2023-02-17T20:36:03.175Z,4.78
2023-02-17T20:38:30.324Z,4.57
2023-02-17T20:40:58.321Z,4.65
2023-02-17T20:43:26.933Z,3.65
2023-02-17T20:45:54.431Z,3.53
2023-02-17T20:48:21.627Z,3.80
2023-02-17T20:50:48.994Z,3.95
2023-02-17T20:53:16.211Z,3.45
2023-02-17T20:55:43.327Z,3.60
2023-02-17T20:58:10.641Z,4.38
2023-02-17T21:00:39.327Z,3.83
2023-02-17T21:03:06.630Z,4.30
2023-02-17T21:05:34.025Z,4.03
2023-02-17T21:08:01.201Z,4.38
2023-02-17T21:10:30.555Z,3.88
2023-02-17T21:12:57.843Z,4.05
2023-02-17T21:15:25.156Z,4.50
2023-02-17T21:17:53.698Z,4.70
2023-02-17T21:20:21.762Z,5.57
2023-02-17T21:22:49.811Z,5.55
2023-02-17T21:25:17.288Z,7.03
2023-02-17T21:27:45.000Z,7.00
2023-02-17T21:30:13.256Z,6.78
2023-02-17T21:32:41.035Z,7.70
2023-02-17T21:35:10.339Z,7.35
2023-02-17T21:37:37.946Z,7.30
2023-02-17T21:40:06.555Z,8.45
2023-02-17T21:42:33.793Z,7.20
2023-02-17T21:45:00.996Z,8.50
2023-02-17T21:47:28.180Z,8.30
2023-02-17T21:49:55.321Z,9.40
2023-02-17T21:52:23.893Z,9.20
2023-02-17T21:54:51.109Z,9.25
2023-02-17T21:57:18.276Z,11.45
2023-02-17T21:59:45.478Z,10.45
2023-02-17T22:02:12.771Z,11.23
2023-02-17T22:04:39.974Z,10.30
2023-02-17T22:07:07.175Z,12.35
2023-02-17T22:09:35.725Z,11.10
2023-02-17T22:12:03.138Z,9.60
2023-02-17T22:14:30.373Z,9.38
2023-02-17T22:16:57.507Z,11.30
2023-02-17T22:19:25.274Z,10.23
2023-02-17T22:21:52.607Z,10.95
2023-02-17T22:24:20.080Z,9.55
2023-02-17T22:26:49.362Z,10.85
2023-02-17T22:29:16.562Z,10.30
2023-02-17T22:31:43.866Z,10.27
2023-02-17T22:34:13.376Z,11.02
2023-02-17T22:36:40.830Z,11.85
2023-02-17T22:39:08.956Z,10.63
2023-02-17T22:41:36.342Z,11.43
2023-02-17T22:44:05.267Z,10.00
2023-02-17T22:46:33.315Z,10.20
2023-02-17T22:49:01.232Z,11.40
2023-02-17T22:51:30.864Z,9.82
2023-02-17T22:53:59.650Z,9.77
2023-02-17T22:56:27.659Z,10.45
2023-02-17T22:58:54.942Z,10.40
2023-02-17T23:01:24.557Z,10.63
2023-02-17T23:03:53.938Z,10.45
2023-02-17T23:06:23.588Z,9.43
2023-02-17T23:08:51.567Z,9.48
2023-02-17T23:11:21.793Z,8.93
2023-02-17T23:13:48.926Z,8.57
2023-02-17T23:16:19.206Z,9.35
2023-02-17T23:18:47.764Z,9.40
2023-02-17T23:21:14.946Z,9.23
2023-02-17T23:23:42.224Z,9.20
2023-02-17T23:26:09.600Z,8.60
2023-02-17T23:28:36.946Z,9.40
2023-02-17T23:31:04.396Z,9.07
2023-02-17T23:33:31.743Z,9.32
2023-02-17T23:36:03.402Z,9.35
2023-02-17T23:38:31.455Z,9.15
2023-02-17T23:40:58.855Z,10.60
2023-02-17T23:43:26.129Z,10.15
2023-02-17T23:45:55.406Z,12.75
2023-02-17T23:48:22.840Z,12.25
2023-02-17T23:50:55.799Z,11.95
2023-02-17T23:53:24.713Z,13.35
2023-02-17T23:56:00.672Z,13.20
2023-02-17T23:58:27.876Z,13.88
